createdAt,value
2023-03-02T00:01:16.287Z,22.14
2023-03-02T00:04:22.125Z,22.14
2023-03-02T00:07:29.263Z,22.12
2023-03-02T00:10:32.632Z,22.15
2023-03-02T00:13:39.048Z,22.18
2023-03-02T00:16:41.924Z,22.20
2023-03-02T00:19:45.647Z,22.21
2023-03-02T00:22:49.342Z,22.23
2023-03-02T00:25:52.267Z,22.23
2023-03-02T00:28:56.964Z,22.22
2023-03-02T00:32:00.074Z,22.24
2023-03-02T00:35:03.320Z,22.19
2023-03-02T00:38:07.256Z,22.16
2023-03-02T00:41:12.066Z,22.12
2023-03-02T00:44:17.694Z,22.11
2023-03-02T00:47:20.871Z,22.11
2023-03-02T00:50:24.059Z,22.11
2023-03-02T00:53:27.119Z,22.11
2023-03-02T00:56:30.691Z,22.12
2023-03-02T00:59:35.270Z,22.12
2023-03-02T01:02:49.650Z,22.18
2023-03-02T01:05:56.317Z,22.17
2023-03-02T01:08:59.332Z,22.18
2023-03-02T01:12:02.233Z,22.17
2023-03-02T01:15:08.242Z,22.18
2023-03-02T01:18:12.210Z,22.17
2023-03-02T01:21:17.127Z,22.16
2023-03-02T01:24:20.123Z,22.14
2023-03-02T01:27:23.303Z,22.14
2023-03-02T01:30:28.836Z,22.16
2023-03-02T01:33:32.084Z,22.16
2023-03-02T01:36:35.466Z,22.18
2023-03-02T01:39:38.514Z,22.16
2023-03-02T01:42:48.440Z,22.17
2023-03-02T01:45:55.414Z,22.18
2023-03-02T01:49:08.213Z,22.17
2023-03-02T01:52:24.154Z,22.14
2023-03-02T01:55:32.602Z,22.14
2023-03-02T01:58:38.126Z,22.12
2023-03-02T02:01:46.150Z,22.11
2023-03-02T02:04:51.253Z,22.11
2023-03-02T02:07:54.367Z,22.09
2023-03-02T02:10:58.048Z,22.09
2023-03-02T02:14:03.275Z,22.10
2023-03-02T02:17:07.828Z,22.11
2023-03-02T02:20:22.232Z,22.11
2023-03-02T02:23:29.770Z,22.09
2023-03-02T02:26:38.571Z,22.09
2023-03-02T02:29:45.894Z,22.09
2023-03-02T02:32:53.457Z,22.10
2023-03-02T02:36:03.154Z,22.12
2023-03-02T02:39:09.457Z,22.12
2023-03-02T02:42:18.090Z,22.09
2023-03-02T02:45:24.326Z,22.07
2023-03-02T02:48:31.130Z,22.07
2023-03-02T02:51:35.519Z,22.05
2023-03-02T02:54:39.923Z,22.05
2023-03-02T02:57:44.648Z,22.05
2023-03-02T03:00:47.800Z,22.05
2023-03-02T03:03:54.185Z,22.05
2023-03-02T03:06:59.760Z,22.03
2023-03-02T03:10:06.267Z,22.03
2023-03-02T03:13:12.414Z,22.03
2023-03-02T03:16:18.615Z,22.03
2023-03-02T03:19:24.510Z,22.03
2023-03-02T03:22:28.507Z,22.04
2023-03-02T03:25:35.018Z,22.03
2023-03-02T03:28:40.348Z,22.02
2023-03-02T03:31:43.822Z,22.03
2023-03-02T03:34:48.422Z,22.02
2023-03-02T03:37:58.304Z,22.04
2023-03-02T03:41:01.839Z,22.06
2023-03-02T03:44:06.727Z,22.08
2023-03-02T03:47:11.887Z,22.10
2023-03-02T03:50:14.941Z,22.11
2023-03-02T03:53:19.504Z,22.14
2023-03-02T03:56:22.676Z,22.13
2023-03-02T03:59:28.286Z,22.14
2023-03-02T04:02:38.280Z,22.14
2023-03-02T04:05:41.532Z,22.13
2023-03-02T04:08:44.584Z,22.14
2023-03-02T04:11:52.280Z,22.13
2023-03-02T04:14:57.062Z,22.13
2023-03-02T04:18:00.686Z,22.14
2023-03-02T04:21:03.708Z,22.16
2023-03-02T04:24:07.884Z,22.16
2023-03-02T04:27:10.932Z,22.17
2023-03-02T04:30:17.192Z,22.18
2023-03-02T04:33:20.512Z,22.16
2023-03-02T04:36:24.321Z,22.14
2023-03-02T04:39:28.265Z,22.10
2023-03-02T04:42:31.472Z,22.08
2023-03-02T04:45:35.957Z,22.06
2023-03-02T04:48:38.955Z,22.02
2023-03-02T04:51:44.186Z,22.01
2023-03-02T04:54:47.130Z,21.99
2023-03-02T04:57:50.655Z,21.99
2023-03-02T05:01:02.110Z,21.95
2023-03-02T05:04:05.667Z,21.96
2023-03-02T05:07:08.695Z,22.02
2023-03-02T05:10:13.005Z,22.04
2023-03-02T05:13:15.954Z,22.02
2023-03-02T05:16:20.805Z,22.01
2023-03-02T05:19:24.007Z,22.01
2023-03-02T05:22:27.321Z,22.01
2023-03-02T05:25:31.891Z,21.99
2023-03-02T05:28:34.961Z,21.98
2023-03-02T05:31:41.058Z,22.01
2023-03-02T05:34:44.079Z,22.04
2023-03-02T05:37:47.145Z,22.06
2023-03-02T05:40:50.225Z,22.07
2023-03-02T05:43:54.470Z,22.08
2023-03-02T05:46:59.133Z,22.10
2023-03-02T05:50:02.260Z,22.11
2023-03-02T05:53:05.368Z,22.10
2023-03-02T05:56:09.066Z,22.11
2023-03-02T05:59:12.065Z,22.11
2023-03-02T06:02:16.366Z,22.13
2023-03-02T06:05:22.668Z,22.14
2023-03-02T06:08:25.660Z,22.16
2023-03-02T06:11:30.209Z,22.15
2023-03-02T06:14:33.596Z,22.15
2023-03-02T06:17:38.236Z,22.15
2023-03-02T06:20:41.990Z,22.14
2023-03-02T06:23:44.964Z,22.14
2023-03-02T06:26:47.840Z,22.14
2023-03-02T06:29:50.813Z,22.12
2023-03-02T06:32:55.456Z,22.10
2023-03-02T06:35:58.735Z,22.08
2023-03-02T06:39:01.748Z,22.07
2023-03-02T06:42:04.828Z,22.05
2023-03-02T06:45:09.195Z,22.04
2023-03-02T06:48:13.769Z,22.02
2023-03-02T06:51:17.885Z,22.00
2023-03-02T06:54:23.107Z,22.01
2023-03-02T06:57:33.623Z,22.01
2023-03-02T07:00:36.633Z,22.01
2023-03-02T07:03:41.035Z,22.03
2023-03-02T07:06:44.108Z,22.04
2023-03-02T07:09:46.992Z,22.06
2023-03-02T07:12:49.884Z,22.07
2023-03-02T07:15:53.618Z,22.08
2023-03-02T07:18:58.059Z,22.09
2023-03-02T07:22:01.100Z,22.09
2023-03-02T07:25:04.220Z,22.09
2023-03-02T07:28:07.349Z,22.11
2023-03-02T07:31:11.224Z,22.11
2023-03-02T07:34:16.329Z,22.12
2023-03-02T07:37:20.088Z,22.11
2023-03-02T07:40:23.128Z,22.11
2023-03-02T07:43:27.225Z,22.12
2023-03-02T07:46:30.559Z,22.13
2023-03-02T07:49:35.478Z,22.14
2023-03-02T07:52:38.611Z,22.15
2023-03-02T07:55:41.911Z,22.16
2023-03-02T07:58:44.988Z,22.16
2023-03-02T08:01:48.076Z,22.15
2023-03-02T08:04:53.406Z,22.16
2023-03-02T08:07:56.279Z,22.15
2023-03-02T08:11:06.168Z,22.13
2023-03-02T08:14:09.129Z,22.13
2023-03-02T08:17:12.071Z,22.12
2023-03-02T08:20:16.532Z,22.12
2023-03-02T08:23:19.513Z,22.10
2023-03-02T08:26:22.828Z,22.11
2023-03-02T08:29:25.854Z,22.09
2023-03-02T08:32:28.867Z,22.09
2023-03-02T08:35:33.312Z,22.09
2023-03-02T08:38:36.996Z,22.07
2023-03-02T08:41:39.959Z,22.09
2023-03-02T08:44:42.870Z,22.09
2023-03-02T08:47:45.840Z,22.08
2023-03-02T08:50:57.472Z,22.11
2023-03-02T08:54:00.455Z,22.09
2023-03-02T08:57:04.010Z,22.10
2023-03-02T09:00:12.017Z,22.10
2023-03-02T09:03:15.124Z,22.11
2023-03-02T09:06:19.600Z,22.10
2023-03-02T09:09:22.544Z,22.12
2023-03-02T09:12:25.645Z,22.13
2023-03-02T09:15:28.708Z,22.13
2023-03-02T09:18:32.061Z,22.14
2023-03-02T09:21:36.538Z,22.15
2023-03-02T09:24:39.550Z,22.14
2023-03-02T09:27:42.874Z,22.14
2023-03-02T09:30:50.445Z,22.14
2023-03-02T09:33:53.474Z,22.14
2023-03-02T09:36:58.019Z,22.14
2023-03-02T09:40:01.080Z,22.14
2023-03-02T09:43:23.469Z,22.16
2023-03-02T09:46:31.420Z,22.13
2023-03-02T09:49:49.205Z,22.04
2023-03-02T09:53:06.917Z,22.03
2023-03-02T09:56:16.357Z,22.06
2023-03-02T09:59:25.469Z,22.14
2023-03-02T10:02:32.419Z,22.25
2023-03-02T10:05:41.524Z,22.35
2023-03-02T10:08:45.925Z,22.42
2023-03-02T10:12:02.577Z,22.50
2023-03-02T10:15:12.532Z,22.55
2023-03-02T10:18:21.335Z,22.58
2023-03-02T10:21:29.871Z,22.60
2023-03-02T10:24:40.870Z,22.61
2023-03-02T10:27:45.583Z,22.61
2023-03-02T10:30:54.092Z,22.61
2023-03-02T10:33:57.936Z,22.60
2023-03-02T10:37:01.012Z,22.58
2023-03-02T10:40:05.945Z,22.56
2023-03-02T10:43:16.507Z,22.53
2023-03-02T10:46:19.682Z,22.50
2023-03-02T10:49:29.046Z,22.49
2023-03-02T10:52:32.101Z,22.48
2023-03-02T10:55:36.506Z,22.46
2023-03-02T10:58:39.487Z,22.44
2023-03-02T11:01:42.399Z,22.43
2023-03-02T11:04:46.340Z,22.41
2023-03-02T11:07:53.796Z,22.40
2023-03-02T11:11:01.218Z,22.38
2023-03-02T11:14:16.897Z,22.37
2023-03-02T11:17:31.750Z,22.35
2023-03-02T11:20:37.545Z,22.29
2023-03-02T11:23:57.870Z,22.27
2023-03-02T11:27:07.115Z,22.25
2023-03-02T11:30:17.051Z,22.23
2023-03-02T11:33:24.976Z,22.24
2023-03-02T11:36:43.642Z,22.24
2023-03-02T11:40:01.461Z,22.21
2023-03-02T11:43:05.900Z,22.22
2023-03-02T11:46:23.335Z,22.21
2023-03-02T11:49:38.337Z,22.17
2023-03-02T11:52:47.585Z,22.15
2023-03-02T11:55:51.120Z,22.14
2023-03-02T11:59:00.347Z,22.15
2023-03-02T12:02:04.127Z,22.15
2023-03-02T12:05:09.900Z,22.14
2023-03-02T12:08:32.947Z,22.14
2023-03-02T12:11:39.543Z,22.14
2023-03-02T12:14:44.361Z,22.11
2023-03-02T12:17:47.338Z,22.09
2023-03-02T12:21:00.037Z,22.09
2023-03-02T12:24:06.302Z,22.05
2023-03-02T12:27:25.970Z,22.04
2023-03-02T12:30:31.575Z,22.07
2023-03-02T12:33:42.422Z,22.10
2023-03-02T12:36:45.807Z,22.12
2023-03-02T12:40:39.333Z,22.13
2023-03-02T12:43:48.555Z,22.13
2023-03-02T12:46:54.401Z,22.14
2023-03-02T12:49:59.716Z,22.15
2023-03-02T12:53:05.340Z,22.15
2023-03-02T12:56:09.721Z,22.16
2023-03-02T12:59:22.484Z,22.16
2023-03-02T13:02:29.695Z,22.17
2023-03-02T13:05:35.428Z,22.17
2023-03-02T13:08:38.582Z,22.17
2023-03-02T13:11:44.386Z,22.17
2023-03-02T13:14:53.027Z,22.16
2023-03-02T13:17:59.460Z,22.17
2023-03-02T13:21:04.704Z,22.16
2023-03-02T13:24:35.972Z,22.17
2023-03-02T13:27:38.994Z,22.16
2023-03-02T13:30:47.766Z,22.15
2023-03-02T13:33:54.910Z,22.15
2023-03-02T13:36:58.142Z,22.14
2023-03-02T13:40:03.312Z,22.14
2023-03-02T13:43:21.684Z,22.13
2023-03-02T13:46:36.759Z,22.12
2023-03-02T13:49:41.468Z,22.12
2023-03-02T13:52:44.474Z,22.12
2023-03-02T13:55:47.574Z,22.12
2023-03-02T13:58:50.627Z,22.12
2023-03-02T14:01:53.880Z,22.12
2023-03-02T14:04:58.714Z,22.11
2023-03-02T14:08:02.804Z,22.11
2023-03-02T14:11:07.530Z,22.10
2023-03-02T14:14:15.365Z,22.09
2023-03-02T14:17:23.752Z,22.11
2023-03-02T14:20:28.079Z,22.08
2023-03-02T14:23:31.189Z,22.09
2023-03-02T14:26:36.585Z,22.10
2023-03-02T14:29:39.944Z,22.08
2023-03-02T14:32:42.946Z,22.07
2023-03-02T14:35:48.107Z,22.05
2023-03-02T14:38:51.076Z,22.07
2023-03-02T14:41:55.067Z,22.06
2023-03-02T14:44:59.848Z,22.06
2023-03-02T14:48:03.093Z,22.07
2023-03-02T14:51:19.994Z,22.06
2023-03-02T14:54:23.121Z,22.06
2023-03-02T14:57:28.661Z,22.05
2023-03-02T15:00:31.922Z,22.05
2023-03-02T15:03:34.982Z,22.03
2023-03-02T15:06:42.375Z,22.04
2023-03-02T15:09:45.590Z,22.04
2023-03-02T15:12:49.118Z,22.02
2023-03-02T15:15:52.779Z,22.03
2023-03-02T15:18:58.738Z,22.02
2023-03-02T15:22:03.331Z,22.03
2023-03-02T15:25:07.316Z,22.03
2023-03-02T15:28:11.353Z,22.03
2023-03-02T15:31:16.358Z,22.03
2023-03-02T15:34:19.515Z,22.02
2023-03-02T15:37:23.801Z,22.03
2023-03-02T15:40:26.817Z,22.03
2023-03-02T15:43:29.751Z,22.02
2023-03-02T15:46:32.776Z,22.02
2023-03-02T15:49:35.822Z,22.02
2023-03-02T15:52:40.142Z,22.02
2023-03-02T15:55:43.172Z,22.02
2023-03-02T15:58:50.374Z,22.02
2023-03-02T16:01:53.667Z,22.02
2023-03-02T16:04:56.662Z,22.01
2023-03-02T16:08:01.004Z,22.01
2023-03-02T16:11:07.432Z,22.02
2023-03-02T16:14:10.799Z,22.02
2023-03-02T16:17:13.701Z,22.03
2023-03-02T16:20:16.965Z,22.00
2023-03-02T16:23:21.398Z,21.90
2023-03-02T16:26:24.422Z,21.77
2023-03-02T16:29:27.507Z,21.72
2023-03-02T16:32:33.044Z,21.70
2023-03-02T16:35:37.555Z,21.70
2023-03-02T16:38:41.911Z,21.74
2023-03-02T16:41:46.223Z,21.79
2023-03-02T16:44:50.921Z,21.84
2023-03-02T16:47:54.079Z,21.92
2023-03-02T16:50:58.640Z,21.97
2023-03-02T16:54:03.144Z,22.02
2023-03-02T16:57:06.170Z,22.06
2023-03-02T17:00:11.020Z,22.09
2023-03-02T17:03:14.076Z,22.12
2023-03-02T17:06:19.203Z,22.13
2023-03-02T17:09:23.453Z,22.14
2023-03-02T17:12:26.621Z,22.14
2023-03-02T17:15:29.751Z,22.13
2023-03-02T17:18:34.002Z,22.10
2023-03-02T17:21:37.024Z,22.10
2023-03-02T17:24:41.457Z,22.08
2023-03-02T17:27:44.803Z,22.05
2023-03-02T17:30:47.879Z,22.03
2023-03-02T17:33:50.932Z,22.03
2023-03-02T17:36:54.023Z,22.02
2023-03-02T17:39:58.477Z,21.98
2023-03-02T17:43:01.719Z,21.97
2023-03-02T17:46:16.438Z,21.95
2023-03-02T17:49:19.450Z,21.93
2023-03-02T17:52:22.400Z,21.90
2023-03-02T17:55:27.000Z,21.87
2023-03-02T17:58:39.365Z,21.84
2023-03-02T18:01:47.521Z,21.81
2023-03-02T18:04:50.569Z,21.81
2023-03-02T18:07:54.607Z,21.81
2023-03-02T18:10:58.873Z,21.80
2023-03-02T18:14:01.809Z,21.79
2023-03-02T18:17:07.546Z,21.80
2023-03-02T18:20:12.022Z,21.81
2023-03-02T18:23:15.290Z,21.81
2023-03-02T18:26:19.764Z,21.80
2023-03-02T18:29:23.012Z,21.76
2023-03-02T18:32:26.017Z,21.77
2023-03-02T18:35:29.001Z,21.73
2023-03-02T18:38:32.388Z,21.73
2023-03-02T18:41:36.775Z,21.71
2023-03-02T18:44:39.642Z,21.67
2023-03-02T18:47:44.210Z,21.67
2023-03-02T18:50:48.744Z,21.68
2023-03-02T18:53:52.634Z,21.69
2023-03-02T18:56:57.034Z,21.72
2023-03-02T19:00:00.003Z,21.71
2023-03-02T19:03:02.997Z,21.73
2023-03-02T19:06:08.131Z,21.73
2023-03-02T19:09:11.449Z,21.73
2023-03-02T19:12:15.756Z,21.72
2023-03-02T19:15:19.508Z,21.73
2023-03-02T19:18:24.804Z,21.73
2023-03-02T19:21:27.828Z,21.72
2023-03-02T19:24:30.724Z,21.73
2023-03-02T19:27:35.352Z,21.73
2023-03-02T19:30:40.090Z,21.70
2023-03-02T19:33:45.161Z,21.70
2023-03-02T19:36:48.171Z,21.69
2023-03-02T19:39:51.138Z,21.70
2023-03-02T19:42:55.452Z,21.69
2023-03-02T19:45:58.699Z,21.70
2023-03-02T19:49:01.722Z,21.69
2023-03-02T19:52:04.991Z,21.66
2023-03-02T19:55:10.458Z,21.67
2023-03-02T19:58:17.351Z,21.66
2023-03-02T20:01:24.911Z,21.67
2023-03-02T20:04:27.972Z,21.65
2023-03-02T20:07:31.031Z,21.64
2023-03-02T20:10:36.864Z,21.64
2023-03-02T20:13:41.223Z,21.63
2023-03-02T20:16:44.171Z,21.64
2023-03-02T20:19:47.508Z,21.64
2023-03-02T20:22:50.444Z,21.64
2023-03-02T20:25:53.495Z,21.64
2023-03-02T20:29:00.497Z,21.62
2023-03-02T20:32:04.439Z,21.62
2023-03-02T20:35:07.623Z,21.62
2023-03-02T20:38:16.680Z,21.61
2023-03-02T20:41:20.553Z,21.62
2023-03-02T20:44:25.566Z,21.61
2023-03-02T20:47:29.762Z,21.61
2023-03-02T20:50:33.807Z,21.60
2023-03-02T20:53:36.860Z,21.60
2023-03-02T20:56:39.830Z,21.58
2023-03-02T20:59:45.839Z,21.58
2023-03-02T21:02:49.527Z,21.60
2023-03-02T21:05:52.516Z,21.59
2023-03-02T21:08:55.505Z,21.61
2023-03-02T21:11:58.947Z,21.60
2023-03-02T21:15:04.077Z,21.60
2023-03-02T21:18:07.088Z,21.60
2023-03-02T21:21:10.152Z,21.60
2023-03-02T21:24:16.989Z,21.61
2023-03-02T21:27:20.219Z,21.60
2023-03-02T21:30:27.647Z,21.61
2023-03-02T21:33:30.568Z,21.61
2023-03-02T21:36:33.869Z,21.62
2023-03-02T21:39:37.236Z,21.62
2023-03-02T21:42:40.340Z,21.63
2023-03-02T21:45:44.925Z,21.65
2023-03-02T21:48:48.884Z,21.66
2023-03-02T21:51:52.279Z,21.67
2023-03-02T21:54:55.538Z,21.66
2023-03-02T21:57:59.106Z,21.67
2023-03-02T22:01:03.502Z,21.68
2023-03-02T22:04:06.752Z,21.67
2023-03-02T22:07:09.658Z,21.67
2023-03-02T22:10:23.859Z,21.66
2023-03-02T22:13:28.689Z,21.66
2023-03-02T22:16:38.478Z,21.66
2023-03-02T22:19:44.661Z,21.66
2023-03-02T22:22:49.030Z,21.66
2023-03-02T22:25:54.959Z,21.67
2023-03-02T22:29:07.355Z,21.67
2023-03-02T22:32:19.822Z,21.67
2023-03-02T22:35:26.475Z,21.68
2023-03-02T22:38:31.100Z,21.69
2023-03-02T22:41:34.036Z,21.69
2023-03-02T22:44:37.240Z,21.67
2023-03-02T22:47:42.019Z,21.67
2023-03-02T22:50:46.739Z,21.67
2023-03-02T22:53:51.835Z,21.67
2023-03-02T22:56:56.955Z,21.64
2023-03-02T23:00:35.743Z,21.62
2023-03-02T23:03:41.728Z,21.63
2023-03-02T23:06:46.512Z,21.61
2023-03-02T23:09:50.294Z,21.60
2023-03-02T23:12:53.297Z,21.60
2023-03-02T23:15:56.331Z,21.59
2023-03-02T23:19:01.221Z,21.58
2023-03-02T23:22:04.846Z,21.57
2023-03-02T23:25:09.133Z,21.56
2023-03-02T23:28:12.116Z,21.58
2023-03-02T23:31:15.316Z,21.56
2023-03-02T23:34:19.644Z,21.56
2023-03-02T23:37:22.580Z,21.55
2023-03-02T23:40:25.546Z,21.55
2023-03-02T23:43:28.516Z,21.54
2023-03-02T23:46:31.819Z,21.54
2023-03-02T23:49:36.077Z,21.53
2023-03-02T23:52:39.395Z,21.54
2023-03-02T23:55:47.787Z,21.53
2023-03-02T23:58:50.741Z,21.52
